Getzville 2E NY

43° 01' 25"N, 78° 44' 55"W, Elevation 589 ft.
Eastern Time

Hourly observations for the last 72 hours

Date Time Temperature (°F) Humi-
dity

(%)
Wind
(mph)
Pressure Rain (in) Sun
(W/m2)
ET
(in)
Air Dew 6 Hour 1 Hr 3 Hr 6 Hr Day
Alt
(in)
Sea
Level

(mb)
Max Min
18 22:00 62.4 51.7 68 W 4 G 12 29.58 1001.9 0.01 0 0.134
18 21:00 63.5 53.6 70 S 0 G 1 29.56 1000.9 0.01 0 0.134
18 20:00 66.8 53.8 76.9 66.8 63 SSW 2 G 4 29.56 1001.2 0.01 0 0.133
18 19:00 69.0 55.0 61 SSW 1 G 4 29.57 1001.3 0.01 33 0.130
18 18:00 71.5 54.5 55 SW 4 G 6 29.58 1001.7 0.01 148 0.124
18 17:00 71.1 54.6 56 SSW 4 G 10 29.58 1001.9 0.01 309 0.115
18 16:00 75.9 58.1 54 SW 6 G 17 29.60 1002.5 0.01 287 0.098
18 15:00 76.0 57.1 52 SSW 7 G 19 29.62 1003.0 0.01 686 0.081
18 14:00 73.8 55.6 73.8 57.4 53 SW 5 G 12 29.63 1003.5 0.01 383 0.068
18 13:00 72.3 54.7 54 SW 5 G 10 29.65 1004.2 0.01 374 0.049
18 12:00 70.0 53.1 55 SSW 8 G 18 29.68 1005.0 0.01 601 0.034
18 11:00 67.0 50.8 56 SSW 8 G 15 29.70 1005.9 0.01 292 0.024
18 10:00 63.8 49.2 59 SW 9 G 15 29.72 1006.5 0.01 244 0.016
18 09:00 60.1 48.3 65 SW 6 G 12 29.72 1006.6 0.01 244 0.010
18 08:00 57.4 47.3 57.4 53.7 69 SSW 3 G 12 29.74 1007.1 0.01 74 0.007
18 07:00 55.5 46.6 72 SSW 2 G 5 29.73 1006.9 0.01 51 0.006
18 06:00 55.1 46.6 73 SSW 4 G 6 29.74 1007.2 0.01 0 0.005
18 05:00 54.5 47.1 76 S 2 G 8 29.74 1007.3 0.01 0 0.004
18 04:00 55.5 48.1 76 SSE 3 G 7 29.76 1007.8 0.01 0 0.003
18 03:00 55.9 48.1 75 SSE 2 G 8 29.78 1008.6 0.01 0 0.002
18 02:00 55.5 48.4 56.4 51.2 77 SSE 2 G 4 29.82 1010.0 0.01 0.01 0.01 0 0.001
18 01:00 56.1 49.0 77 SSE 1 G 4 29.86 1011.2 0.01 0.01 0 0.000
18 00:00 52.2 43.8 73 E 0 G 1 29.88 1012.0 0.00 0 0.163
17 23:00 51.8 42.0 69 ESE 2 G 8 29.90 1012.6 0.00 0 0.161
17 22:00 51.3 39.5 64 E 4 G 11 29.93 1013.7 0.00 0 0.159
17 21:00 53.8 40.7 61 E 7 G 15 29.96 1014.5 0.00 0 0.157
17 20:00 56.1 41.5 62.9 56.1 58 E 5 G 9 29.97 1014.9 0.00 0 0.155
17 19:00 61.3 45.0 55 E 5 G 10 29.98 1015.1 0.00 56 0.151
17 18:00 62.7 43.8 50 E 6 G 17 29.99 1015.4 0.00 74 0.146
17 17:00 62.7 43.8 50 E 8 G 12 30.00 1016.1 0.00 316 0.135
17 16:00 62.3 44.0 51 E 7 G 16 30.04 1017.4 0.00 837 0.114
17 15:00 60.7 43.0 52 E 6 G 14 30.07 1018.4 0.00 970 0.091
17 14:00 58.9 41.3 59.0 37.3 52 E 7 G 14 30.09 1019.2 0.00 1035 0.067
17 13:00 57.6 40.1 52 E 9 G 15 30.12 1019.9 0.00 1039 0.044
17 12:00 56.3 39.4 53 SSE 3 G 11 30.14 1020.6 0.00 1072 0.022
17 11:00 52.6 36.0 53 ESE 6 G 10 30.15 1020.9 0.00 909 0.011
17 10:00 48.3 39.0 70 E 5 G 10 30.14 1020.8 0.00 142 0.006
17 09:00 43.2 41.3 93 ENE 3 G 4 30.14 1020.7 0.00 239 0.002
17 08:00 37.3 36.0 37.3 31.0 95 ENE 1 G 3 30.14 1020.8 0.00 271 0.000
17 07:00 31.2 29.7 94 ENE 0 G 2 30.13 1020.2 0.00 26 0.000
17 06:00 32.6 31.1 94 Calm 30.12 1019.9 0.00 0 0.000
17 05:00 32.1 30.3 93 Calm 30.11 1019.5 0.00 0 0.000
17 04:00 33.2 31.4 93 Calm 30.10 1019.2 0.00 0 0.000
17 03:00 34.8 33.0 93 Calm 30.08 1018.7 0.00 0 0.000
17 02:00 36.0 34.2 40.2 36.0 93 ENE 0 G 2 30.08 1018.7 0.01 0.00 0 0.000
17 01:00 38.2 36.4 93 Calm 30.08 1018.8 0.00 0 0.000
17 00:00 40.1 38.2 93 Calm 30.08 1018.5 0.14 0 0.049
16 23:00 40.0 38.1 93 ENE 0 G 1 30.07 1018.4 0.01 0.14 0 0.049
16 22:00 40.0 38.1 93 Calm 30.08 1018.7 0.01 0.14 0 0.049
16 21:00 40.1 38.0 92 ENE 0 G 3 30.08 1018.6 0.13 0 0.049
16 20:00 40.2 38.1 43.2 39.8 92 E 1 G 4 30.06 1018.1 0.06 0.13 0.13 0 0.049
16 19:00 40.0 37.6 91 Calm 30.06 1018.0 0.01 0.13 11 0.049
16 18:00 40.5 38.1 91 SE 2 G 5 30.04 1017.2 0.05 0.12 62 0.048
16 17:00 39.8 36.8 89 SW 2 G 4 30.07 1018.4 0.02 0.07 0.07 53 0.046
16 16:00 40.4 37.1 88 SW 2 G 5 30.09 1018.9 0.04 0.05 218 0.044
16 15:00 40.3 35.9 84 SW 3 G 6 30.11 1019.6 0.01 0.01 118 0.041
16 14:00 43.2 35.5 46.1 37.7 74 SW 5 G 14 30.11 1019.5 0.00 165 0.036
16 13:00 44.4 33.4 65 SW 5 G 10 30.11 1019.8 0.00 359 0.029
16 12:00 45.9 31.1 56 SSW 4 G 7 30.13 1020.2 0.00 424 0.021
16 11:00 45.0 31.5 59 W 3 G 9 30.14 1020.6 0.00 425 0.013
16 10:00 41.4 32.4 70 W 3 G 10 30.13 1020.4 0.00 352 0.008
16 09:00 38.9 30.6 72 SW 1 G 3 30.13 1020.4 0.00 146 0.005
16 08:00 37.7 31.8 37.7 27.4 79 WSW 1 G 3 30.13 1020.4 0.00 236 0.002
16 07:00 28.3 25.7 90 Calm 30.12 1020.1 0.00 37 0.002
16 06:00 27.7 24.6 88 Calm 30.10 1019.3 0.00 0 0.002
16 05:00 28.5 24.8 86 Calm 30.09 1018.9 0.00 0 0.002
16 04:00 29.8 25.3 83 SW 2 G 3 30.07 1018.4 0.00 0 0.002
16 03:00 31.9 26.1 79 SW 0 G 3 30.05 1017.6 0.00 0 0.002
16 02:00 31.9 25.8 43.4 31.9 78 SW 1 G 3 30.04 1017.2 0.00 0 0.001
16 01:00 33.5 25.1 71 SW 1 G 4 30.03 1016.8 0.00 0 0.000
16 00:00 34.4 24.6 67 W 2 G 6 30.01 1016.4 0.13 0 0.047
15 23:00 35.9 24.2 62 W 2 G 8 30.00 1015.8 0.12 0 0.046

Data generated by WxSolution Version 1.9.1.5, Build 2018.05.20.